CheckWX is a tool to help pilots better visualize weather data.  It is not intended as a substitute for an official pre-flight weather briefing.

15:29:41 UTC

KHRO METAR
Boone County Airport
Harrison, Arkansas, USA
Current

37 mins ago

KHRO 171453Z AUTO 14006KT 10SM CLR 09/06 A3010 RMK AO2 SLP194 T00940061 50001
Observed
Oct-17 @ 14:53 UTC
Wind
  • 140° at 6 KTS
Visibility
10 SM
Flight Rules
VFR
Cloud Levels
  • Clear skies
Temperature
C / 48°F
Dewpoint
C / 43°F
Humidity
82%
Altimeter
30.1" Hg
Pressure
1019.32 hPa
Previous

2 hours ago

KHRO 171353Z AUTO 15003KT 10SM CLR 06/04 A3011 RMK AO2 SLP197 T00610044
Observed
Oct-17 @ 13:53 UTC
Wind
  • 150° at 3 KTS
Visibility
10 SM
Flight Rules
VFR
Cloud Levels
  • Clear skies
Temperature
C / 43°F
Dewpoint
C / 39°F
Humidity
87%
Altimeter
30.11" Hg
Pressure
1019.62 hPa
Previous

3 hours ago

KHRO 171253Z AUTO 00000KT 7SM CLR 03/02 A3010 RMK AO2 SLP195 T00330022
Observed
Oct-17 @ 12:53 UTC
Visibility
7 SM
Flight Rules
VFR
Cloud Levels
  • Clear skies
Temperature
C / 37°F
Dewpoint
C / 36°F
Humidity
93%
Altimeter
30.1" Hg
Pressure
1019.32 hPa